<?xml version='1.0' encoding='UTF-8'?>
<gpx version="1.1" creator="https://www.komoot.de" xmlns="http://www.topografix.com/GPX/1/1" xmlns:xsi="http://www.w3.org/2001/XMLSchema-instance" xsi:schemaLocation="http://www.topografix.com/GPX/1/1 http://www.topografix.com/GPX/1/1/gpx.xsd">
  <metadata>
    <name>Highland Perthshire Gravel Trails Dunkeld Lochs Loop</name>
    <author>
      <link href="https://www.komoot.de">
        <text>komoot</text>
        <type>text/html</type>
      </link>
    </author>
  </metadata>
  <trk>
    <name>Highland Perthshire Gravel Trails Dunkeld Lochs Loop</name>
    <trkseg>
      <trkpt lat="56.565620" lon="-3.585504">
        <ele>55.563449</ele>
        <time>2020-03-31T07:59:28.367Z</time>
      </trkpt>
      <trkpt lat="56.565587" lon="-3.585836">
        <ele>55.563449</ele>
        <time>2020-03-31T07:59:31.963Z</time>
      </trkpt>
      <trkpt lat="56.565522" lon="-3.586477">
        <ele>55.563449</ele>
        <time>2020-03-31T07:59:39.939Z</time>
      </trkpt>
      <trkpt lat="56.565481" lon="-3.586889">
        <ele>55.563449</ele>
        <time>2020-03-31T07:59:44.841Z</time>
      </trkpt>
      <trkpt lat="56.565481" lon="-3.586889">
        <ele>55.563449</ele>
        <time>2020-03-31T07:59:44.881Z</time>
      </trkpt>
      <trkpt lat="56.565561" lon="-3.586994">
        <ele>55.563449</ele>
        <time>2020-03-31T07:59:47.008Z</time>
      </trkpt>
      <trkpt lat="56.565640" lon="-3.586995">
        <ele>55.612639</ele>
        <time>2020-03-31T07:59:48.524Z</time>
      </trkpt>
      <trkpt lat="56.565640" lon="-3.586995">
        <ele>55.612639</ele>
        <time>2020-03-31T07:59:48.536Z</time>
      </trkpt>
      <trkpt lat="56.565640" lon="-3.586995">
        <ele>55.612639</ele>
        <time>2020-03-31T07:59:48.646Z</time>
      </trkpt>
      <trkpt lat="56.565640" lon="-3.586995">
        <ele>55.612639</ele>
        <time>2020-03-31T07:59:48.646Z</time>
      </trkpt>
      <trkpt lat="56.566163" lon="-3.587434">
        <ele>56.136796</ele>
        <time>2020-03-31T08:00:13.315Z</time>
      </trkpt>
      <trkpt lat="56.566164" lon="-3.587522">
        <ele>56.180910</ele>
        <time>2020-03-31T08:00:16.700Z</time>
      </trkpt>
      <trkpt lat="56.566197" lon="-3.587592">
        <ele>56.227083</ele>
        <time>2020-03-31T08:00:20.216Z</time>
      </trkpt>
      <trkpt lat="56.566296" lon="-3.587803">
        <ele>56.365982</ele>
        <time>2020-03-31T08:00:30.842Z</time>
      </trkpt>
      <trkpt lat="56.566519" lon="-3.588142">
        <ele>56.630585</ele>
        <time>2020-03-31T08:00:51.098Z</time>
      </trkpt>
      <trkpt lat="56.566488" lon="-3.588141">
        <ele>56.658789</ele>
        <time>2020-03-31T08:00:53.238Z</time>
      </trkpt>
      <trkpt lat="56.565974" lon="-3.588267">
        <ele>57.130590</ele>
        <time>2020-03-31T08:01:29.317Z</time>
      </trkpt>
      <trkpt lat="56.565514" lon="-3.588587">
        <ele>57.878618</ele>
        <time>2020-03-31T08:02:03.622Z</time>
      </trkpt>
      <trkpt lat="56.565478" lon="-3.588612">
        <ele>57.941416</ele>
        <time>2020-03-31T08:02:06.322Z</time>
      </trkpt>
      <trkpt lat="56.565384" lon="-3.588945">
        <ele>58.277283</ele>
        <time>2020-03-31T08:02:20.686Z</time>
      </trkpt>
      <trkpt lat="56.565380" lon="-3.589244">
        <ele>58.545763</ele>
        <time>2020-03-31T08:02:32.192Z</time>
      </trkpt>
      <trkpt lat="56.565355" lon="-3.591158">
        <ele>60.180658</ele>
        <time>2020-03-31T08:03:45.744Z</time>
      </trkpt>
      <trkpt lat="56.565263" lon="-3.591302">
        <ele>60.255357</ele>
        <time>2020-03-31T08:03:54.165Z</time>
      </trkpt>
      <trkpt lat="56.564295" lon="-3.591092">
        <ele>60.854792</ele>
        <time>2020-03-31T08:05:02.055Z</time>
      </trkpt>
      <trkpt lat="56.563839" lon="-3.593323">
        <ele>61.044182</ele>
        <time>2020-03-31T08:06:33.452Z</time>
      </trkpt>
      <trkpt lat="56.563702" lon="-3.594239">
        <ele>60.899204</ele>
        <time>2020-03-31T08:07:09.929Z</time>
      </trkpt>
      <trkpt lat="56.563692" lon="-3.594900">
        <ele>60.798201</ele>
        <time>2020-03-31T08:07:35.355Z</time>
      </trkpt>
      <trkpt lat="56.563525" lon="-3.596409">
        <ele>60.653202</ele>
        <time>2020-03-31T08:08:34.463Z</time>
      </trkpt>
      <trkpt lat="56.563479" lon="-3.597915">
        <ele>60.542013</ele>
        <time>2020-03-31T08:09:32.435Z</time>
      </trkpt>
      <trkpt lat="56.563336" lon="-3.599296">
        <ele>61.040257</ele>
        <time>2020-03-31T08:10:26.430Z</time>
      </trkpt>
      <trkpt lat="56.563219" lon="-3.600425">
        <ele>61.831516</ele>
        <time>2020-03-31T08:11:10.592Z</time>
      </trkpt>
      <trkpt lat="56.563278" lon="-3.601187">
        <ele>62.361519</ele>
        <time>2020-03-31T08:11:40.159Z</time>
      </trkpt>
      <trkpt lat="56.563384" lon="-3.601498">
        <ele>62.613395</ele>
        <time>2020-03-31T08:11:54.220Z</time>
      </trkpt>
      <trkpt lat="56.563620" lon="-3.602803">
        <ele>63.321603</ele>
        <time>2020-03-31T08:12:46.971Z</time>
      </trkpt>
      <trkpt lat="56.563804" lon="-3.603440">
        <ele>63.672341</ele>
        <time>2020-03-31T08:13:14.612Z</time>
      </trkpt>
      <trkpt lat="56.563845" lon="-3.603816">
        <ele>63.859258</ele>
        <time>2020-03-31T08:13:29.326Z</time>
      </trkpt>
      <trkpt lat="56.563863" lon="-3.605060">
        <ele>64.099060</ele>
        <time>2020-03-31T08:14:17.168Z</time>
      </trkpt>
      <trkpt lat="56.563816" lon="-3.605382">
        <ele>63.800441</ele>
        <time>2020-03-31T08:14:29.961Z</time>
      </trkpt>
      <trkpt lat="56.564159" lon="-3.606305">
        <ele>62.802407</ele>
        <time>2020-03-31T08:15:12.702Z</time>
      </trkpt>
      <trkpt lat="56.564222" lon="-3.606620">
        <ele>62.501994</ele>
        <time>2020-03-31T08:15:25.609Z</time>
      </trkpt>
      <trkpt lat="56.564380" lon="-3.606324">
        <ele>62.132547</ele>
        <time>2020-03-31T08:15:29.262Z</time>
      </trkpt>
      <trkpt lat="56.564450" lon="-3.607033">
        <ele>61.486837</ele>
        <time>2020-03-31T08:15:37.701Z</time>
      </trkpt>
      <trkpt lat="56.564583" lon="-3.607892">
        <ele>61.279795</ele>
        <time>2020-03-31T08:15:48.604Z</time>
      </trkpt>
      <trkpt lat="56.564613" lon="-3.608172">
        <ele>61.233612</ele>
        <time>2020-03-31T08:15:52.567Z</time>
      </trkpt>
      <trkpt lat="56.564675" lon="-3.608749">
        <ele>61.138432</ele>
        <time>2020-03-31T08:15:59.881Z</time>
      </trkpt>
      <trkpt lat="56.564742" lon="-3.609250">
        <ele>61.054963</ele>
        <time>2020-03-31T08:16:06.346Z</time>
      </trkpt>
      <trkpt lat="56.564898" lon="-3.609491">
        <ele>60.994765</ele>
        <time>2020-03-31T08:16:11.002Z</time>
      </trkpt>
      <trkpt lat="56.564995" lon="-3.609599">
        <ele>60.961326</ele>
        <time>2020-03-31T08:16:14.964Z</time>
      </trkpt>
      <trkpt lat="56.565148" lon="-3.609768">
        <ele>60.908696</ele>
        <time>2020-03-31T08:16:20.933Z</time>
      </trkpt>
      <trkpt lat="56.565199" lon="-3.609920">
        <ele>60.923293</ele>
        <time>2020-03-31T08:16:23.414Z</time>
      </trkpt>
      <trkpt lat="56.565208" lon="-3.610781">
        <ele>63.714891</ele>
        <time>2020-03-31T08:16:43.151Z</time>
      </trkpt>
      <trkpt lat="56.565145" lon="-3.610953">
        <ele>64.384421</ele>
        <time>2020-03-31T08:16:47.905Z</time>
      </trkpt>
      <trkpt lat="56.565149" lon="-3.611576">
        <ele>66.404135</ele>
        <time>2020-03-31T08:17:07.817Z</time>
      </trkpt>
      <trkpt lat="56.565208" lon="-3.611793">
        <ele>67.188565</ele>
        <time>2020-03-31T08:17:15.149Z</time>
      </trkpt>
      <trkpt lat="56.565331" lon="-3.611994">
        <ele>68.162341</ele>
        <time>2020-03-31T08:17:26.891Z</time>
      </trkpt>
      <trkpt lat="56.565570" lon="-3.612340">
        <ele>69.961021</ele>
        <time>2020-03-31T08:17:46.119Z</time>
      </trkpt>
      <trkpt lat="56.565730" lon="-3.612461">
        <ele>70.980818</ele>
        <time>2020-03-31T08:17:57.057Z</time>
      </trkpt>
      <trkpt lat="56.566084" lon="-3.612444">
        <ele>74.406393</ele>
        <time>2020-03-31T08:18:22.628Z</time>
      </trkpt>
      <trkpt lat="56.566191" lon="-3.612321">
        <ele>75.776567</ele>
        <time>2020-03-31T08:18:32.770Z</time>
      </trkpt>
      <trkpt lat="56.566346" lon="-3.611959">
        <ele>78.509198</ele>
        <time>2020-03-31T08:18:54.387Z</time>
      </trkpt>
      <trkpt lat="56.566602" lon="-3.611551">
        <ele>82.194797</ele>
        <time>2020-03-31T08:19:25.524Z</time>
      </trkpt>
      <trkpt lat="56.567354" lon="-3.610714">
        <ele>91.501104</ele>
        <time>2020-03-31T08:20:46.366Z</time>
      </trkpt>
      <trkpt lat="56.567555" lon="-3.610258">
        <ele>93.971819</ele>
        <time>2020-03-31T08:21:13.662Z</time>
      </trkpt>
      <trkpt lat="56.567694" lon="-3.609743">
        <ele>96.398093</ele>
        <time>2020-03-31T08:21:37.542Z</time>
      </trkpt>
      <trkpt lat="56.567877" lon="-3.609400">
        <ele>98.418160</ele>
        <time>2020-03-31T08:21:56.562Z</time>
      </trkpt>
      <trkpt lat="56.568385" lon="-3.609067">
        <ele>102.565748</ele>
        <time>2020-03-31T08:22:29.934Z</time>
      </trkpt>
      <trkpt lat="56.568595" lon="-3.608805">
        <ele>104.522574</ele>
        <time>2020-03-31T08:22:44.622Z</time>
      </trkpt>
      <trkpt lat="56.568743" lon="-3.608420">
        <ele>105.742029</ele>
        <time>2020-03-31T08:22:57.959Z</time>
      </trkpt>
      <trkpt lat="56.568743" lon="-3.608420">
        <ele>105.742029</ele>
        <time>2020-03-31T08:22:58.175Z</time>
      </trkpt>
      <trkpt lat="56.568794" lon="-3.608066">
        <ele>106.621334</ele>
        <time>2020-03-31T08:23:07.790Z</time>
      </trkpt>
      <trkpt lat="56.568853" lon="-3.607549">
        <ele>107.890111</ele>
        <time>2020-03-31T08:23:21.689Z</time>
      </trkpt>
      <trkpt lat="56.568895" lon="-3.607413">
        <ele>108.264776</ele>
        <time>2020-03-31T08:23:25.430Z</time>
      </trkpt>
      <trkpt lat="56.568895" lon="-3.607413">
        <ele>108.264776</ele>
        <time>2020-03-31T08:23:25.439Z</time>
      </trkpt>
      <trkpt lat="56.568942" lon="-3.607330">
        <ele>108.550803</ele>
        <time>2020-03-31T08:23:28.184Z</time>
      </trkpt>
      <trkpt lat="56.569017" lon="-3.607267">
        <ele>108.911276</ele>
        <time>2020-03-31T08:23:32.682Z</time>
      </trkpt>
      <trkpt lat="56.569095" lon="-3.607246">
        <ele>109.255223</ele>
        <time>2020-03-31T08:23:35.766Z</time>
      </trkpt>
      <trkpt lat="56.568987" lon="-3.608980">
        <ele>114.215002</ele>
        <time>2020-03-31T08:24:17.510Z</time>
      </trkpt>
      <trkpt lat="56.568907" lon="-3.610092">
        <ele>119.285314</ele>
        <time>2020-03-31T08:24:51.279Z</time>
      </trkpt>
      <trkpt lat="56.568865" lon="-3.610678">
        <ele>121.957095</ele>
        <time>2020-03-31T08:25:12.669Z</time>
      </trkpt>
      <trkpt lat="56.568885" lon="-3.611393">
        <ele>125.193958</ele>
        <time>2020-03-31T08:25:39.209Z</time>
      </trkpt>
      <trkpt lat="56.568967" lon="-3.611912">
        <ele>127.697547</ele>
        <time>2020-03-31T08:26:00.725Z</time>
      </trkpt>
      <trkpt lat="56.569128" lon="-3.612579">
        <ele>131.686983</ele>
        <time>2020-03-31T08:26:30.077Z</time>
      </trkpt>
      <trkpt lat="56.569470" lon="-3.613343">
        <ele>137.079930</ele>
        <time>2020-03-31T08:27:10.798Z</time>
      </trkpt>
      <trkpt lat="56.570284" lon="-3.614451">
        <ele>146.803021</ele>
        <time>2020-03-31T08:28:16.721Z</time>
      </trkpt>
      <trkpt lat="56.570939" lon="-3.614759">
        <ele>152.185651</ele>
        <time>2020-03-31T08:29:05.326Z</time>
      </trkpt>
      <trkpt lat="56.572056" lon="-3.615059">
        <ele>161.065692</ele>
        <time>2020-03-31T08:30:24.177Z</time>
      </trkpt>
      <trkpt lat="56.573853" lon="-3.615295">
        <ele>174.589174</ele>
        <time>2020-03-31T08:32:27.763Z</time>
      </trkpt>
      <trkpt lat="56.576926" lon="-3.614823">
        <ele>198.034746</ele>
        <time>2020-03-31T08:36:09.815Z</time>
      </trkpt>
      <trkpt lat="56.577115" lon="-3.614877">
        <ele>199.430667</ele>
        <time>2020-03-31T08:36:21.301Z</time>
      </trkpt>
      <trkpt lat="56.577830" lon="-3.615435">
        <ele>202.653115</ele>
        <time>2020-03-31T08:37:03.774Z</time>
      </trkpt>
      <trkpt lat="56.577996" lon="-3.615435">
        <ele>203.251023</ele>
        <time>2020-03-31T08:37:12.035Z</time>
      </trkpt>
      <trkpt lat="56.578616" lon="-3.615199">
        <ele>205.532728</ele>
        <time>2020-03-31T08:37:40.851Z</time>
      </trkpt>
      <trkpt lat="56.578917" lon="-3.615188">
        <ele>206.617107</ele>
        <time>2020-03-31T08:37:53.815Z</time>
      </trkpt>
      <trkpt lat="56.579552" lon="-3.614872">
        <ele>208.343516</ele>
        <time>2020-03-31T08:38:22.216Z</time>
      </trkpt>
      <trkpt lat="56.580252" lon="-3.614727">
        <ele>210.154042</ele>
        <time>2020-03-31T08:38:53.043Z</time>
      </trkpt>
      <trkpt lat="56.580394" lon="-3.614824">
        <ele>210.543925</ele>
        <time>2020-03-31T08:38:59.900Z</time>
      </trkpt>
      <trkpt lat="56.580663" lon="-3.615210">
        <ele>211.451096</ele>
        <time>2020-03-31T08:39:15.749Z</time>
      </trkpt>
      <trkpt lat="56.580909" lon="-3.615314">
        <ele>212.357758</ele>
        <time>2020-03-31T08:39:27.790Z</time>
      </trkpt>
      <trkpt lat="56.581387" lon="-3.615014">
        <ele>214.173197</ele>
        <time>2020-03-31T08:39:52.796Z</time>
      </trkpt>
      <trkpt lat="56.582065" lon="-3.614780">
        <ele>216.650518</ele>
        <time>2020-03-31T08:40:28.097Z</time>
      </trkpt>
      <trkpt lat="56.582424" lon="-3.614968">
        <ele>217.995006</ele>
        <time>2020-03-31T08:40:47.136Z</time>
      </trkpt>
      <trkpt lat="56.583163" lon="-3.614673">
        <ele>220.761969</ele>
        <time>2020-03-31T08:41:26.198Z</time>
      </trkpt>
      <trkpt lat="56.583700" lon="-3.614606">
        <ele>222.730338</ele>
        <time>2020-03-31T08:41:53.883Z</time>
      </trkpt>
      <trkpt lat="56.584424" lon="-3.614040">
        <ele>224.958061</ele>
        <time>2020-03-31T08:42:31.844Z</time>
      </trkpt>
      <trkpt lat="56.585243" lon="-3.613925">
        <ele>226.349372</ele>
        <time>2020-03-31T08:43:05.989Z</time>
      </trkpt>
      <trkpt lat="56.586108" lon="-3.613625">
        <ele>227.279150</ele>
        <time>2020-03-31T08:43:36.726Z</time>
      </trkpt>
      <trkpt lat="56.587027" lon="-3.613630">
        <ele>226.657143</ele>
        <time>2020-03-31T08:44:04.260Z</time>
      </trkpt>
      <trkpt lat="56.589761" lon="-3.614019">
        <ele>222.978840</ele>
        <time>2020-03-31T08:45:22.524Z</time>
      </trkpt>
      <trkpt lat="56.590453" lon="-3.613978">
        <ele>221.263175</ele>
        <time>2020-03-31T08:45:41.483Z</time>
      </trkpt>
      <trkpt lat="56.590875" lon="-3.613860">
        <ele>220.205152</ele>
        <time>2020-03-31T08:45:52.743Z</time>
      </trkpt>
      <trkpt lat="56.591443" lon="-3.613493">
        <ele>218.408427</ele>
        <time>2020-03-31T08:46:08.171Z</time>
      </trkpt>
      <trkpt lat="56.592194" lon="-3.613818">
        <ele>215.454716</ele>
        <time>2020-03-31T08:46:27.187Z</time>
      </trkpt>
      <trkpt lat="56.592931" lon="-3.614493">
        <ele>212.422877</ele>
        <time>2020-03-31T08:46:47.478Z</time>
      </trkpt>
      <trkpt lat="56.593401" lon="-3.614598">
        <ele>213.158866</ele>
        <time>2020-03-31T08:47:00.695Z</time>
      </trkpt>
      <trkpt lat="56.593848" lon="-3.614434">
        <ele>213.867636</ele>
        <time>2020-03-31T08:47:15.932Z</time>
      </trkpt>
      <trkpt lat="56.594535" lon="-3.614628">
        <ele>214.948214</ele>
        <time>2020-03-31T08:47:49.796Z</time>
      </trkpt>
      <trkpt lat="56.594582" lon="-3.614646">
        <ele>215.022869</ele>
        <time>2020-03-31T08:47:52.673Z</time>
      </trkpt>
      <trkpt lat="56.594594" lon="-3.614614">
        <ele>215.055999</ele>
        <time>2020-03-31T08:47:55.824Z</time>
      </trkpt>
      <trkpt lat="56.594776" lon="-3.614071">
        <ele>217.953048</ele>
        <time>2020-03-31T08:48:17.653Z</time>
      </trkpt>
      <trkpt lat="56.594795" lon="-3.613713">
        <ele>219.993157</ele>
        <time>2020-03-31T08:48:31.762Z</time>
      </trkpt>
      <trkpt lat="56.594352" lon="-3.613316">
        <ele>225.082657</ele>
        <time>2020-03-31T08:49:11.637Z</time>
      </trkpt>
      <trkpt lat="56.594250" lon="-3.613127">
        <ele>226.583906</ele>
        <time>2020-03-31T08:49:26.583Z</time>
      </trkpt>
      <trkpt lat="56.594030" lon="-3.612397">
        <ele>231.304553</ele>
        <time>2020-03-31T08:50:10.787Z</time>
      </trkpt>
      <trkpt lat="56.593841" lon="-3.611982">
        <ele>234.507497</ele>
        <time>2020-03-31T08:50:39.068Z</time>
      </trkpt>
      <trkpt lat="56.593645" lon="-3.611332">
        <ele>239.673072</ele>
        <time>2020-03-31T08:51:19.472Z</time>
      </trkpt>
      <trkpt lat="56.593597" lon="-3.610989">
        <ele>242.139854</ele>
        <time>2020-03-31T08:51:38.979Z</time>
      </trkpt>
      <trkpt lat="56.593503" lon="-3.610760">
        <ele>244.130810</ele>
        <time>2020-03-31T08:51:54.737Z</time>
      </trkpt>
      <trkpt lat="56.593173" lon="-3.610317">
        <ele>249.325807</ele>
        <time>2020-03-31T08:52:35.043Z</time>
      </trkpt>
      <trkpt lat="56.592606" lon="-3.610052">
        <ele>256.633110</ele>
        <time>2020-03-31T08:53:29.196Z</time>
      </trkpt>
      <trkpt lat="56.592555" lon="-3.609888">
        <ele>257.405244</ele>
        <time>2020-03-31T08:53:38.350Z</time>
      </trkpt>
      <trkpt lat="56.592543" lon="-3.609595">
        <ele>258.609702</ele>
        <time>2020-03-31T08:53:52.195Z</time>
      </trkpt>
      <trkpt lat="56.592751" lon="-3.609016">
        <ele>261.443829</ele>
        <time>2020-03-31T08:54:22.484Z</time>
      </trkpt>
      <trkpt lat="56.593075" lon="-3.608669">
        <ele>264.244365</ele>
        <time>2020-03-31T08:54:48.950Z</time>
      </trkpt>
      <trkpt lat="56.593251" lon="-3.608480">
        <ele>265.766696</ele>
        <time>2020-03-31T08:55:02.076Z</time>
      </trkpt>
      <trkpt lat="56.593653" lon="-3.607815">
        <ele>269.815182</ele>
        <time>2020-03-31T08:55:32.456Z</time>
      </trkpt>
      <trkpt lat="56.594066" lon="-3.607394">
        <ele>270.196106</ele>
        <time>2020-03-31T08:55:54.673Z</time>
      </trkpt>
      <trkpt lat="56.595073" lon="-3.604070">
        <ele>268.595047</ele>
        <time>2020-03-31T08:56:57.916Z</time>
      </trkpt>
      <trkpt lat="56.595321" lon="-3.603705">
        <ele>267.531009</ele>
        <time>2020-03-31T08:57:05.869Z</time>
      </trkpt>
      <trkpt lat="56.595476" lon="-3.603205">
        <ele>266.477913</ele>
        <time>2020-03-31T08:57:13.560Z</time>
      </trkpt>
      <trkpt lat="56.595627" lon="-3.602803">
        <ele>265.584787</ele>
        <time>2020-03-31T08:57:19.963Z</time>
      </trkpt>
      <trkpt lat="56.595775" lon="-3.602620">
        <ele>264.860659</ele>
        <time>2020-03-31T08:57:24.027Z</time>
      </trkpt>
      <trkpt lat="56.596337" lon="-3.601552">
        <ele>259.500236</ele>
        <time>2020-03-31T08:57:42.555Z</time>
      </trkpt>
      <trkpt lat="56.596436" lon="-3.601191">
        <ele>258.036925</ele>
        <time>2020-03-31T08:57:47.519Z</time>
      </trkpt>
      <trkpt lat="56.596757" lon="-3.600746">
        <ele>255.375664</ele>
        <time>2020-03-31T08:57:56.657Z</time>
      </trkpt>
      <trkpt lat="56.596836" lon="-3.600474">
        <ele>254.259869</ele>
        <time>2020-03-31T08:58:00.689Z</time>
      </trkpt>
      <trkpt lat="56.597066" lon="-3.600286">
        <ele>252.950482</ele>
        <time>2020-03-31T08:58:06.742Z</time>
      </trkpt>
      <trkpt lat="56.597382" lon="-3.600308">
        <ele>251.969227</ele>
        <time>2020-03-31T08:58:14.458Z</time>
      </trkpt>
      <trkpt lat="56.597522" lon="-3.600274">
        <ele>251.530948</ele>
        <time>2020-03-31T08:58:17.967Z</time>
      </trkpt>
      <trkpt lat="56.597556" lon="-3.600179">
        <ele>251.337387</ele>
        <time>2020-03-31T08:58:19.528Z</time>
      </trkpt>
      <trkpt lat="56.597549" lon="-3.599346">
        <ele>249.914267</ele>
        <time>2020-03-31T08:58:31.267Z</time>
      </trkpt>
      <trkpt lat="56.597741" lon="-3.598289">
        <ele>248.012924</ele>
        <time>2020-03-31T08:58:48.177Z</time>
      </trkpt>
      <trkpt lat="56.597831" lon="-3.596408">
        <ele>248.164123</ele>
        <time>2020-03-31T08:59:22.308Z</time>
      </trkpt>
      <trkpt lat="56.598075" lon="-3.596160">
        <ele>248.308192</ele>
        <time>2020-03-31T08:59:32.918Z</time>
      </trkpt>
      <trkpt lat="56.598383" lon="-3.595512">
        <ele>248.551034</ele>
        <time>2020-03-31T08:59:51.484Z</time>
      </trkpt>
      <trkpt lat="56.598425" lon="-3.595313">
        <ele>248.609369</ele>
        <time>2020-03-31T08:59:56.168Z</time>
      </trkpt>
      <trkpt lat="56.598365" lon="-3.594326">
        <ele>248.471366</ele>
        <time>2020-03-31T09:00:16.983Z</time>
      </trkpt>
      <trkpt lat="56.598343" lon="-3.592791">
        <ele>248.257966</ele>
        <time>2020-03-31T09:00:44.632Z</time>
      </trkpt>
      <trkpt lat="56.598407" lon="-3.592599">
        <ele>248.226772</ele>
        <time>2020-03-31T09:00:48.134Z</time>
      </trkpt>
      <trkpt lat="56.598764" lon="-3.592165">
        <ele>247.322108</ele>
        <time>2020-03-31T09:00:59.711Z</time>
      </trkpt>
      <trkpt lat="56.598905" lon="-3.591847">
        <ele>246.065900</ele>
        <time>2020-03-31T09:01:05.426Z</time>
      </trkpt>
      <trkpt lat="56.598975" lon="-3.590822">
        <ele>242.888315</ele>
        <time>2020-03-31T09:01:19.165Z</time>
      </trkpt>
      <trkpt lat="56.599365" lon="-3.590286">
        <ele>240.155254</ele>
        <time>2020-03-31T09:01:30.382Z</time>
      </trkpt>
      <trkpt lat="56.599774" lon="-3.588978">
        <ele>234.371802</ele>
        <time>2020-03-31T09:01:48.774Z</time>
      </trkpt>
      <trkpt lat="56.600338" lon="-3.588093">
        <ele>228.338853</ele>
        <time>2020-03-31T09:02:05.146Z</time>
      </trkpt>
      <trkpt lat="56.600532" lon="-3.587920">
        <ele>226.589428</ele>
        <time>2020-03-31T09:02:09.940Z</time>
      </trkpt>
      <trkpt lat="56.600752" lon="-3.587090">
        <ele>222.898360</ele>
        <time>2020-03-31T09:02:21.443Z</time>
      </trkpt>
      <trkpt lat="56.600817" lon="-3.586591">
        <ele>221.505765</ele>
        <time>2020-03-31T09:02:27.974Z</time>
      </trkpt>
      <trkpt lat="56.601050" lon="-3.586054">
        <ele>219.648828</ele>
        <time>2020-03-31T09:02:36.693Z</time>
      </trkpt>
      <trkpt lat="56.601313" lon="-3.585781">
        <ele>218.154425</ele>
        <time>2020-03-31T09:02:43.964Z</time>
      </trkpt>
      <trkpt lat="56.601599" lon="-3.584960">
        <ele>215.515853</ele>
        <time>2020-03-31T09:02:57.515Z</time>
      </trkpt>
      <trkpt lat="56.601635" lon="-3.584606">
        <ele>214.674821</ele>
        <time>2020-03-31T09:03:03.170Z</time>
      </trkpt>
      <trkpt lat="56.601648" lon="-3.584484">
        <ele>214.685793</ele>
        <time>2020-03-31T09:03:05.025Z</time>
      </trkpt>
      <trkpt lat="56.601714" lon="-3.584552">
        <ele>214.697964</ele>
        <time>2020-03-31T09:03:06.545Z</time>
      </trkpt>
      <trkpt lat="56.601824" lon="-3.584509">
        <ele>214.716012</ele>
        <time>2020-03-31T09:03:08.923Z</time>
      </trkpt>
      <trkpt lat="56.602061" lon="-3.584239">
        <ele>214.760885</ele>
        <time>2020-03-31T09:03:15.755Z</time>
      </trkpt>
      <trkpt lat="56.602122" lon="-3.584305">
        <ele>214.772273</ele>
        <time>2020-03-31T09:03:17.256Z</time>
      </trkpt>
      <trkpt lat="56.602231" lon="-3.584493">
        <ele>214.796382</ele>
        <time>2020-03-31T09:03:22.460Z</time>
      </trkpt>
      <trkpt lat="56.602972" lon="-3.586264">
        <ele>215.417753</ele>
        <time>2020-03-31T09:03:59.929Z</time>
      </trkpt>
      <trkpt lat="56.604023" lon="-3.588029">
        <ele>218.536625</ele>
        <time>2020-03-31T09:04:53.927Z</time>
      </trkpt>
      <trkpt lat="56.604121" lon="-3.588100">
        <ele>218.766535</ele>
        <time>2020-03-31T09:04:57.814Z</time>
      </trkpt>
      <trkpt lat="56.604423" lon="-3.588010">
        <ele>219.460954</ele>
        <time>2020-03-31T09:05:09.141Z</time>
      </trkpt>
      <trkpt lat="56.604679" lon="-3.588092">
        <ele>220.055516</ele>
        <time>2020-03-31T09:05:18.820Z</time>
      </trkpt>
      <trkpt lat="56.604785" lon="-3.588281">
        <ele>220.395212</ele>
        <time>2020-03-31T09:05:24.370Z</time>
      </trkpt>
      <trkpt lat="56.605692" lon="-3.590398">
        <ele>223.585831</ele>
        <time>2020-03-31T09:06:18.661Z</time>
      </trkpt>
      <trkpt lat="56.606543" lon="-3.592811">
        <ele>226.183878</ele>
        <time>2020-03-31T09:07:11.809Z</time>
      </trkpt>
      <trkpt lat="56.606796" lon="-3.593141">
        <ele>226.345503</ele>
        <time>2020-03-31T09:07:21.098Z</time>
      </trkpt>
      <trkpt lat="56.607069" lon="-3.593637">
        <ele>226.545857</ele>
        <time>2020-03-31T09:07:32.196Z</time>
      </trkpt>
      <trkpt lat="56.607357" lon="-3.594530">
        <ele>226.841480</ele>
        <time>2020-03-31T09:07:47.536Z</time>
      </trkpt>
      <trkpt lat="56.607591" lon="-3.595548">
        <ele>226.974809</ele>
        <time>2020-03-31T09:08:02.793Z</time>
      </trkpt>
      <trkpt lat="56.608863" lon="-3.598579">
        <ele>225.904133</ele>
        <time>2020-03-31T09:08:53.079Z</time>
      </trkpt>
      <trkpt lat="56.609164" lon="-3.599160">
        <ele>225.538450</ele>
        <time>2020-03-31T09:09:03.250Z</time>
      </trkpt>
      <trkpt lat="56.609525" lon="-3.599646">
        <ele>225.164314</ele>
        <time>2020-03-31T09:09:13.579Z</time>
      </trkpt>
      <trkpt lat="56.610697" lon="-3.600811">
        <ele>223.690674</ele>
        <time>2020-03-31T09:09:43.898Z</time>
      </trkpt>
      <trkpt lat="56.610796" lon="-3.601037">
        <ele>223.495910</ele>
        <time>2020-03-31T09:09:47.476Z</time>
      </trkpt>
      <trkpt lat="56.610844" lon="-3.601231">
        <ele>223.352492</ele>
        <time>2020-03-31T09:09:50.053Z</time>
      </trkpt>
      <trkpt lat="56.610949" lon="-3.601660">
        <ele>223.035919</ele>
        <time>2020-03-31T09:09:55.805Z</time>
      </trkpt>
      <trkpt lat="56.611162" lon="-3.602014">
        <ele>222.682259</ele>
        <time>2020-03-31T09:10:02.256Z</time>
      </trkpt>
      <trkpt lat="56.611746" lon="-3.602465">
        <ele>222.106979</ele>
        <time>2020-03-31T09:10:16.370Z</time>
      </trkpt>
      <trkpt lat="56.612060" lon="-3.602808">
        <ele>221.785973</ele>
        <time>2020-03-31T09:10:24.609Z</time>
      </trkpt>
      <trkpt lat="56.612194" lon="-3.603151">
        <ele>221.583150</ele>
        <time>2020-03-31T09:10:29.778Z</time>
      </trkpt>
      <trkpt lat="56.612391" lon="-3.604086">
        <ele>221.100409</ele>
        <time>2020-03-31T09:10:43.034Z</time>
      </trkpt>
      <trkpt lat="56.612410" lon="-3.604120">
        <ele>221.077045</ele>
        <time>2020-03-31T09:10:43.577Z</time>
      </trkpt>
      <trkpt lat="56.612620" lon="-3.604089">
        <ele>221.351769</ele>
        <time>2020-03-31T09:10:48.801Z</time>
      </trkpt>
      <trkpt lat="56.613026" lon="-3.604045">
        <ele>222.115500</ele>
        <time>2020-03-31T09:11:01.081Z</time>
      </trkpt>
      <trkpt lat="56.613488" lon="-3.604346">
        <ele>223.037102</ele>
        <time>2020-03-31T09:11:18.059Z</time>
      </trkpt>
      <trkpt lat="56.613678" lon="-3.604414">
        <ele>223.400732</ele>
        <time>2020-03-31T09:11:24.758Z</time>
      </trkpt>
      <trkpt lat="56.613813" lon="-3.604434">
        <ele>223.655073</ele>
        <time>2020-03-31T09:11:30.627Z</time>
      </trkpt>
      <trkpt lat="56.614064" lon="-3.604304">
        <ele>224.145162</ele>
        <time>2020-03-31T09:11:41.034Z</time>
      </trkpt>
      <trkpt lat="56.614233" lon="-3.604079">
        <ele>224.692865</ele>
        <time>2020-03-31T09:11:50.537Z</time>
      </trkpt>
      <trkpt lat="56.614386" lon="-3.603982">
        <ele>225.380332</ele>
        <time>2020-03-31T09:11:57.695Z</time>
      </trkpt>
      <trkpt lat="56.615000" lon="-3.604084">
        <ele>227.996084</ele>
        <time>2020-03-31T09:12:26.961Z</time>
      </trkpt>
      <trkpt lat="56.615614" lon="-3.603827">
        <ele>230.669173</ele>
        <time>2020-03-31T09:12:58.060Z</time>
      </trkpt>
      <trkpt lat="56.615868" lon="-3.603537">
        <ele>231.941776</ele>
        <time>2020-03-31T09:13:12.130Z</time>
      </trkpt>
      <trkpt lat="56.616106" lon="-3.603054">
        <ele>233.054387</ele>
        <time>2020-03-31T09:13:28.367Z</time>
      </trkpt>
      <trkpt lat="56.616379" lon="-3.602743">
        <ele>234.032232</ele>
        <time>2020-03-31T09:13:42.377Z</time>
      </trkpt>
      <trkpt lat="56.616532" lon="-3.602411">
        <ele>234.755411</ele>
        <time>2020-03-31T09:13:52.354Z</time>
      </trkpt>
      <trkpt lat="56.616762" lon="-3.602255">
        <ele>235.500465</ele>
        <time>2020-03-31T09:14:02.135Z</time>
      </trkpt>
      <trkpt lat="56.616927" lon="-3.602266">
        <ele>236.001560</ele>
        <time>2020-03-31T09:14:08.374Z</time>
      </trkpt>
      <trkpt lat="56.617122" lon="-3.602400">
        <ele>236.634256</ele>
        <time>2020-03-31T09:14:16.002Z</time>
      </trkpt>
      <trkpt lat="56.617937" lon="-3.603199">
        <ele>238.460679</ele>
        <time>2020-03-31T09:14:47.315Z</time>
      </trkpt>
      <trkpt lat="56.618318" lon="-3.603199">
        <ele>239.030269</ele>
        <time>2020-03-31T09:14:59.062Z</time>
      </trkpt>
      <trkpt lat="56.618471" lon="-3.603017">
        <ele>239.303638</ele>
        <time>2020-03-31T09:15:04.520Z</time>
      </trkpt>
      <trkpt lat="56.619582" lon="-3.601053">
        <ele>242.142175</ele>
        <time>2020-03-31T09:15:55.732Z</time>
      </trkpt>
      <trkpt lat="56.619983" lon="-3.599421">
        <ele>244.262865</ele>
        <time>2020-03-31T09:16:33.301Z</time>
      </trkpt>
      <trkpt lat="56.620011" lon="-3.598761">
        <ele>245.302887</ele>
        <time>2020-03-31T09:16:47.860Z</time>
      </trkpt>
      <trkpt lat="56.620082" lon="-3.598431">
        <ele>245.859590</ele>
        <time>2020-03-31T09:16:55.764Z</time>
      </trkpt>
      <trkpt lat="56.620225" lon="-3.598215">
        <ele>246.390550</ele>
        <time>2020-03-31T09:17:03.346Z</time>
      </trkpt>
      <trkpt lat="56.621240" lon="-3.598108">
        <ele>249.313950</ele>
        <time>2020-03-31T09:17:43.576Z</time>
      </trkpt>
      <trkpt lat="56.621736" lon="-3.598945">
        <ele>251.380037</ele>
        <time>2020-03-31T09:18:10.334Z</time>
      </trkpt>
      <trkpt lat="56.622007" lon="-3.599095">
        <ele>252.244825</ele>
        <time>2020-03-31T09:18:21.801Z</time>
      </trkpt>
      <trkpt lat="56.622468" lon="-3.599181">
        <ele>253.659512</ele>
        <time>2020-03-31T09:18:40.836Z</time>
      </trkpt>
      <trkpt lat="56.623493" lon="-3.598852">
        <ele>257.416589</ele>
        <time>2020-03-31T09:19:25.166Z</time>
      </trkpt>
      <trkpt lat="56.624014" lon="-3.599117">
        <ele>259.476662</ele>
        <time>2020-03-31T09:19:49.424Z</time>
      </trkpt>
      <trkpt lat="56.624498" lon="-3.598988">
        <ele>261.339348</ele>
        <time>2020-03-31T09:20:11.923Z</time>
      </trkpt>
      <trkpt lat="56.624664" lon="-3.598752">
        <ele>262.355819</ele>
        <time>2020-03-31T09:20:21.691Z</time>
      </trkpt>
      <trkpt lat="56.624638" lon="-3.597650">
        <ele>265.284979</ele>
        <time>2020-03-31T09:20:50.654Z</time>
      </trkpt>
      <trkpt lat="56.625192" lon="-3.596341">
        <ele>269.670826</ele>
        <time>2020-03-31T09:21:36.716Z</time>
      </trkpt>
      <trkpt lat="56.625431" lon="-3.595555">
        <ele>272.086235</ele>
        <time>2020-03-31T09:22:02.775Z</time>
      </trkpt>
      <trkpt lat="56.625617" lon="-3.595204">
        <ele>273.399890</ele>
        <time>2020-03-31T09:22:18.049Z</time>
      </trkpt>
      <trkpt lat="56.626080" lon="-3.595016">
        <ele>275.724412</ele>
        <time>2020-03-31T09:22:43.488Z</time>
      </trkpt>
      <trkpt lat="56.626187" lon="-3.594871">
        <ele>276.378338</ele>
        <time>2020-03-31T09:22:49.667Z</time>
      </trkpt>
      <trkpt lat="56.626237" lon="-3.594657">
        <ele>277.005022</ele>
        <time>2020-03-31T09:22:56.145Z</time>
      </trkpt>
      <trkpt lat="56.626268" lon="-3.593857">
        <ele>278.953209</ele>
        <time>2020-03-31T09:23:15.662Z</time>
      </trkpt>
      <trkpt lat="56.626279" lon="-3.593154">
        <ele>279.617388</ele>
        <time>2020-03-31T09:23:30.923Z</time>
      </trkpt>
      <trkpt lat="56.626298" lon="-3.592969">
        <ele>279.795121</ele>
        <time>2020-03-31T09:23:34.010Z</time>
      </trkpt>
      <trkpt lat="56.626442" lon="-3.592671">
        <ele>280.169712</ele>
        <time>2020-03-31T09:23:41.962Z</time>
      </trkpt>
      <trkpt lat="56.626695" lon="-3.592401">
        <ele>280.673371</ele>
        <time>2020-03-31T09:23:51.510Z</time>
      </trkpt>
      <trkpt lat="56.626960" lon="-3.592113">
        <ele>281.203419</ele>
        <time>2020-03-31T09:24:00.968Z</time>
      </trkpt>
      <trkpt lat="56.627044" lon="-3.592012">
        <ele>281.376318</ele>
        <time>2020-03-31T09:24:04.368Z</time>
      </trkpt>
      <trkpt lat="56.627170" lon="-3.591904">
        <ele>281.615471</ele>
        <time>2020-03-31T09:24:08.041Z</time>
      </trkpt>
      <trkpt lat="56.627851" lon="-3.591189">
        <ele>282.483863</ele>
        <time>2020-03-31T09:24:28.171Z</time>
      </trkpt>
      <trkpt lat="56.628040" lon="-3.590987">
        <ele>282.685853</ele>
        <time>2020-03-31T09:24:34.389Z</time>
      </trkpt>
      <trkpt lat="56.628362" lon="-3.590700">
        <ele>283.016250</ele>
        <time>2020-03-31T09:24:44.862Z</time>
      </trkpt>
      <trkpt lat="56.628675" lon="-3.590008">
        <ele>283.470277</ele>
        <time>2020-03-31T09:25:00.914Z</time>
      </trkpt>
      <trkpt lat="56.629461" lon="-3.589024">
        <ele>285.333652</ele>
        <time>2020-03-31T09:25:35.055Z</time>
      </trkpt>
      <trkpt lat="56.630017" lon="-3.587208">
        <ele>287.896896</ele>
        <time>2020-03-31T09:26:16.665Z</time>
      </trkpt>
      <trkpt lat="56.630223" lon="-3.586349">
        <ele>289.441918</ele>
        <time>2020-03-31T09:26:36.225Z</time>
      </trkpt>
      <trkpt lat="56.630388" lon="-3.585958">
        <ele>290.254440</ele>
        <time>2020-03-31T09:26:46.961Z</time>
      </trkpt>
      <trkpt lat="56.630564" lon="-3.585703">
        <ele>290.929030</ele>
        <time>2020-03-31T09:26:55.776Z</time>
      </trkpt>
      <trkpt lat="56.630836" lon="-3.585433">
        <ele>291.857953</ele>
        <time>2020-03-31T09:27:08.180Z</time>
      </trkpt>
      <trkpt lat="56.630805" lon="-3.585215">
        <ele>292.229189</ele>
        <time>2020-03-31T09:27:13.198Z</time>
      </trkpt>
      <trkpt lat="56.630732" lon="-3.585005">
        <ele>292.638768</ele>
        <time>2020-03-31T09:27:18.627Z</time>
      </trkpt>
      <trkpt lat="56.630518" lon="-3.584654">
        <ele>293.951240</ele>
        <time>2020-03-31T09:27:32.535Z</time>
      </trkpt>
      <trkpt lat="56.630315" lon="-3.584210">
        <ele>295.477498</ele>
        <time>2020-03-31T09:27:49.928Z</time>
      </trkpt>
      <trkpt lat="56.630121" lon="-3.583394">
        <ele>297.827490</ele>
        <time>2020-03-31T09:28:15.966Z</time>
      </trkpt>
      <trkpt lat="56.629820" lon="-3.583123">
        <ele>299.441782</ele>
        <time>2020-03-31T09:28:33.040Z</time>
      </trkpt>
      <trkpt lat="56.629671" lon="-3.582626">
        <ele>300.938109</ele>
        <time>2020-03-31T09:28:48.642Z</time>
      </trkpt>
      <trkpt lat="56.629644" lon="-3.582283">
        <ele>301.587891</ele>
        <time>2020-03-31T09:28:57.607Z</time>
      </trkpt>
      <trkpt lat="56.629633" lon="-3.582079">
        <ele>301.809531</ele>
        <time>2020-03-31T09:29:03.505Z</time>
      </trkpt>
      <trkpt lat="56.629731" lon="-3.581550">
        <ele>302.413100</ele>
        <time>2020-03-31T09:29:18.680Z</time>
      </trkpt>
      <trkpt lat="56.629808" lon="-3.581182">
        <ele>302.838829</ele>
        <time>2020-03-31T09:29:28.237Z</time>
      </trkpt>
      <trkpt lat="56.629966" lon="-3.580857">
        <ele>303.307831</ele>
        <time>2020-03-31T09:29:39.090Z</time>
      </trkpt>
      <trkpt lat="56.630341" lon="-3.580548">
        <ele>304.117187</ele>
        <time>2020-03-31T09:29:55.969Z</time>
      </trkpt>
      <trkpt lat="56.630494" lon="-3.580234">
        <ele>304.570764</ele>
        <time>2020-03-31T09:30:04.172Z</time>
      </trkpt>
      <trkpt lat="56.630634" lon="-3.579377">
        <ele>304.313890</ele>
        <time>2020-03-31T09:30:17.918Z</time>
      </trkpt>
      <trkpt lat="56.630394" lon="-3.578281">
        <ele>302.979624</ele>
        <time>2020-03-31T09:30:35.445Z</time>
      </trkpt>
      <trkpt lat="56.630167" lon="-3.577814">
        <ele>302.274717</ele>
        <time>2020-03-31T09:30:44.651Z</time>
      </trkpt>
      <trkpt lat="56.629913" lon="-3.576693">
        <ele>300.841719</ele>
        <time>2020-03-31T09:31:02.472Z</time>
      </trkpt>
      <trkpt lat="56.629759" lon="-3.576339">
        <ele>300.237867</ele>
        <time>2020-03-31T09:31:09.097Z</time>
      </trkpt>
      <trkpt lat="56.629444" lon="-3.575851">
        <ele>299.231210</ele>
        <time>2020-03-31T09:31:20.181Z</time>
      </trkpt>
      <trkpt lat="56.629311" lon="-3.575159">
        <ele>298.250462</ele>
        <time>2020-03-31T09:31:30.951Z</time>
      </trkpt>
      <trkpt lat="56.629204" lon="-3.573874">
        <ele>296.604974</ele>
        <time>2020-03-31T09:31:50.255Z</time>
      </trkpt>
      <trkpt lat="56.629243" lon="-3.573482">
        <ele>296.212476</ele>
        <time>2020-03-31T09:31:56.247Z</time>
      </trkpt>
      <trkpt lat="56.629370" lon="-3.572944">
        <ele>295.635641</ele>
        <time>2020-03-31T09:32:05.125Z</time>
      </trkpt>
      <trkpt lat="56.629381" lon="-3.572575">
        <ele>295.271539</ele>
        <time>2020-03-31T09:32:10.753Z</time>
      </trkpt>
      <trkpt lat="56.629237" lon="-3.570746">
        <ele>293.539711</ele>
        <time>2020-03-31T09:32:39.512Z</time>
      </trkpt>
      <trkpt lat="56.629116" lon="-3.569845">
        <ele>293.045708</ele>
        <time>2020-03-31T09:32:54.318Z</time>
      </trkpt>
      <trkpt lat="56.629281" lon="-3.569137">
        <ele>292.636150</ele>
        <time>2020-03-31T09:33:06.724Z</time>
      </trkpt>
      <trkpt lat="56.629441" lon="-3.569017">
        <ele>292.468550</ele>
        <time>2020-03-31T09:33:11.778Z</time>
      </trkpt>
      <trkpt lat="56.629606" lon="-3.569006">
        <ele>292.308667</ele>
        <time>2020-03-31T09:33:16.725Z</time>
      </trkpt>
      <trkpt lat="56.629915" lon="-3.569228">
        <ele>291.986935</ele>
        <time>2020-03-31T09:33:26.737Z</time>
      </trkpt>
      <trkpt lat="56.630001" lon="-3.569070">
        <ele>291.899101</ele>
        <time>2020-03-31T09:33:30.434Z</time>
      </trkpt>
      <trkpt lat="56.630181" lon="-3.568289">
        <ele>291.856312</ele>
        <time>2020-03-31T09:33:44.776Z</time>
      </trkpt>
      <trkpt lat="56.630296" lon="-3.568121">
        <ele>291.842759</ele>
        <time>2020-03-31T09:33:49.454Z</time>
      </trkpt>
      <trkpt lat="56.630520" lon="-3.568094">
        <ele>291.822136</ele>
        <time>2020-03-31T09:33:56.505Z</time>
      </trkpt>
      <trkpt lat="56.630557" lon="-3.568075">
        <ele>291.818604</ele>
        <time>2020-03-31T09:33:57.556Z</time>
      </trkpt>
      <trkpt lat="56.630571" lon="-3.568067">
        <ele>291.817256</ele>
        <time>2020-03-31T09:33:58.489Z</time>
      </trkpt>
      <trkpt lat="56.630990" lon="-3.567171">
        <ele>291.757829</ele>
        <time>2020-03-31T09:34:19.622Z</time>
      </trkpt>
      <trkpt lat="56.631881" lon="-3.565643">
        <ele>291.140602</ele>
        <time>2020-03-31T09:34:59.540Z</time>
      </trkpt>
      <trkpt lat="56.632341" lon="-3.564513">
        <ele>290.678862</ele>
        <time>2020-03-31T09:35:21.689Z</time>
      </trkpt>
      <trkpt lat="56.632354" lon="-3.564426">
        <ele>290.603019</ele>
        <time>2020-03-31T09:35:22.948Z</time>
      </trkpt>
      <trkpt lat="56.632367" lon="-3.564341">
        <ele>290.476523</ele>
        <time>2020-03-31T09:35:24.295Z</time>
      </trkpt>
      <trkpt lat="56.632397" lon="-3.563972">
        <ele>289.941706</ele>
        <time>2020-03-31T09:35:30.308Z</time>
      </trkpt>
      <trkpt lat="56.632388" lon="-3.563920">
        <ele>289.863545</ele>
        <time>2020-03-31T09:35:31.095Z</time>
      </trkpt>
      <trkpt lat="56.632373" lon="-3.563808">
        <ele>289.698268</ele>
        <time>2020-03-31T09:35:32.643Z</time>
      </trkpt>
      <trkpt lat="56.632300" lon="-3.563368">
        <ele>289.039324</ele>
        <time>2020-03-31T09:35:39.739Z</time>
      </trkpt>
      <trkpt lat="56.632199" lon="-3.562129">
        <ele>287.243449</ele>
        <time>2020-03-31T09:35:57.830Z</time>
      </trkpt>
      <trkpt lat="56.631978" lon="-3.561453">
        <ele>286.115908</ele>
        <time>2020-03-31T09:36:08.950Z</time>
      </trkpt>
      <trkpt lat="56.631748" lon="-3.561045">
        <ele>285.231950</ele>
        <time>2020-03-31T09:36:17.177Z</time>
      </trkpt>
      <trkpt lat="56.631364" lon="-3.560820">
        <ele>284.110285</ele>
        <time>2020-03-31T09:36:27.788Z</time>
      </trkpt>
      <trkpt lat="56.630730" lon="-3.560836">
        <ele>282.347476</ele>
        <time>2020-03-31T09:36:44.575Z</time>
      </trkpt>
      <trkpt lat="56.630556" lon="-3.560734">
        <ele>281.839199</ele>
        <time>2020-03-31T09:36:49.443Z</time>
      </trkpt>
      <trkpt lat="56.630261" lon="-3.560246">
        <ele>280.764338</ele>
        <time>2020-03-31T09:37:00.120Z</time>
      </trkpt>
      <trkpt lat="56.629933" lon="-3.559844">
        <ele>279.818223</ele>
        <time>2020-03-31T09:37:10.733Z</time>
      </trkpt>
      <trkpt lat="56.629007" lon="-3.558878">
        <ele>277.264726</ele>
        <time>2020-03-31T09:37:39.507Z</time>
      </trkpt>
      <trkpt lat="56.628207" lon="-3.558181">
        <ele>275.491875</ele>
        <time>2020-03-31T09:38:03.423Z</time>
      </trkpt>
      <trkpt lat="56.627605" lon="-3.557081">
        <ele>273.916382</ele>
        <time>2020-03-31T09:38:27.194Z</time>
      </trkpt>
      <trkpt lat="56.627555" lon="-3.556965">
        <ele>273.766748</ele>
        <time>2020-03-31T09:38:29.303Z</time>
      </trkpt>
      <trkpt lat="56.627555" lon="-3.556965">
        <ele>273.766748</ele>
        <time>2020-03-31T09:38:29.303Z</time>
      </trkpt>
      <trkpt lat="56.627555" lon="-3.556965">
        <ele>273.766748</ele>
        <time>2020-03-31T09:38:29.304Z</time>
      </trkpt>
      <trkpt lat="56.627455" lon="-3.556976">
        <ele>273.581826</ele>
        <time>2020-03-31T09:38:31.648Z</time>
      </trkpt>
      <trkpt lat="56.626976" lon="-3.556986">
        <ele>273.223024</ele>
        <time>2020-03-31T09:38:42.557Z</time>
      </trkpt>
      <trkpt lat="56.626723" lon="-3.556609">
        <ele>273.104239</ele>
        <time>2020-03-31T09:38:50.217Z</time>
      </trkpt>
      <trkpt lat="56.626469" lon="-3.555472">
        <ele>272.859118</ele>
        <time>2020-03-31T09:39:06.653Z</time>
      </trkpt>
      <trkpt lat="56.626410" lon="-3.555364">
        <ele>272.828715</ele>
        <time>2020-03-31T09:39:08.896Z</time>
      </trkpt>
      <trkpt lat="56.625029" lon="-3.554485">
        <ele>273.398873</ele>
        <time>2020-03-31T09:39:51.058Z</time>
      </trkpt>
      <trkpt lat="56.624256" lon="-3.553779">
        <ele>273.865881</ele>
        <time>2020-03-31T09:40:16.198Z</time>
      </trkpt>
      <trkpt lat="56.623979" lon="-3.553433">
        <ele>273.919372</ele>
        <time>2020-03-31T09:40:25.627Z</time>
      </trkpt>
      <trkpt lat="56.622821" lon="-3.551590">
        <ele>274.244744</ele>
        <time>2020-03-31T09:41:04.379Z</time>
      </trkpt>
      <trkpt lat="56.622284" lon="-3.551214">
        <ele>274.523002</ele>
        <time>2020-03-31T09:41:18.912Z</time>
      </trkpt>
      <trkpt lat="56.621995" lon="-3.551191">
        <ele>274.662879</ele>
        <time>2020-03-31T09:41:27.161Z</time>
      </trkpt>
      <trkpt lat="56.621862" lon="-3.551210">
        <ele>274.727388</ele>
        <time>2020-03-31T09:41:30.394Z</time>
      </trkpt>
      <trkpt lat="56.621830" lon="-3.551214">
        <ele>274.742897</ele>
        <time>2020-03-31T09:41:31.724Z</time>
      </trkpt>
      <trkpt lat="56.620726" lon="-3.551365">
        <ele>275.652051</ele>
        <time>2020-03-31T09:42:05.802Z</time>
      </trkpt>
      <trkpt lat="56.620579" lon="-3.551438">
        <ele>275.822849</ele>
        <time>2020-03-31T09:42:11.118Z</time>
      </trkpt>
      <trkpt lat="56.620278" lon="-3.551770">
        <ele>276.217472</ele>
        <time>2020-03-31T09:42:21.979Z</time>
      </trkpt>
      <trkpt lat="56.619864" lon="-3.551931">
        <ele>276.691990</ele>
        <time>2020-03-31T09:42:35.299Z</time>
      </trkpt>
      <trkpt lat="56.619735" lon="-3.551856">
        <ele>276.843791</ele>
        <time>2020-03-31T09:42:39.196Z</time>
      </trkpt>
      <trkpt lat="56.619628" lon="-3.551684">
        <ele>277.003892</ele>
        <time>2020-03-31T09:42:43.658Z</time>
      </trkpt>
      <trkpt lat="56.619428" lon="-3.551063">
        <ele>277.334979</ele>
        <time>2020-03-31T09:42:55.841Z</time>
      </trkpt>
      <trkpt lat="56.619404" lon="-3.550963">
        <ele>277.384919</ele>
        <time>2020-03-31T09:42:57.796Z</time>
      </trkpt>
      <trkpt lat="56.619363" lon="-3.550784">
        <ele>277.473671</ele>
        <time>2020-03-31T09:43:00.619Z</time>
      </trkpt>
      <trkpt lat="56.619256" lon="-3.550678">
        <ele>277.575056</ele>
        <time>2020-03-31T09:43:04.054Z</time>
      </trkpt>
      <trkpt lat="56.619132" lon="-3.550614">
        <ele>277.682298</ele>
        <time>2020-03-31T09:43:08.245Z</time>
      </trkpt>
      <trkpt lat="56.618814" lon="-3.550539">
        <ele>277.949080</ele>
        <time>2020-03-31T09:43:17.407Z</time>
      </trkpt>
      <trkpt lat="56.618613" lon="-3.550515">
        <ele>278.116665</ele>
        <time>2020-03-31T09:43:22.839Z</time>
      </trkpt>
      <trkpt lat="56.618388" lon="-3.550571">
        <ele>278.305603</ele>
        <time>2020-03-31T09:43:29.779Z</time>
      </trkpt>
      <trkpt lat="56.617981" lon="-3.550473">
        <ele>278.712351</ele>
        <time>2020-03-31T09:43:41.307Z</time>
      </trkpt>
      <trkpt lat="56.617763" lon="-3.550247">
        <ele>279.018197</ele>
        <time>2020-03-31T09:43:48.587Z</time>
      </trkpt>
      <trkpt lat="56.617574" lon="-3.549990">
        <ele>279.305852</ele>
        <time>2020-03-31T09:43:56.019Z</time>
      </trkpt>
      <trkpt lat="56.617261" lon="-3.549335">
        <ele>279.887564</ele>
        <time>2020-03-31T09:44:12.240Z</time>
      </trkpt>
      <trkpt lat="56.617055" lon="-3.548606">
        <ele>280.437079</ele>
        <time>2020-03-31T09:44:27.314Z</time>
      </trkpt>
      <trkpt lat="56.616830" lon="-3.546986">
        <ele>280.978915</ele>
        <time>2020-03-31T09:44:54.674Z</time>
      </trkpt>
      <trkpt lat="56.616813" lon="-3.546771">
        <ele>281.026426</ele>
        <time>2020-03-31T09:44:58.707Z</time>
      </trkpt>
      <trkpt lat="56.616842" lon="-3.546578">
        <ele>281.070187</ele>
        <time>2020-03-31T09:45:01.439Z</time>
      </trkpt>
      <trkpt lat="56.616860" lon="-3.545881">
        <ele>281.222813</ele>
        <time>2020-03-31T09:45:11.560Z</time>
      </trkpt>
      <trkpt lat="56.616771" lon="-3.545119">
        <ele>281.393202</ele>
        <time>2020-03-31T09:45:22.108Z</time>
      </trkpt>
      <trkpt lat="56.616765" lon="-3.544679">
        <ele>281.213491</ele>
        <time>2020-03-31T09:45:28.040Z</time>
      </trkpt>
      <trkpt lat="56.616866" lon="-3.543788">
        <ele>280.686291</ele>
        <time>2020-03-31T09:45:39.500Z</time>
      </trkpt>
      <trkpt lat="56.616860" lon="-3.543252">
        <ele>280.375602</ele>
        <time>2020-03-31T09:45:46.056Z</time>
      </trkpt>
      <trkpt lat="56.616753" lon="-3.542673">
        <ele>280.021638</ele>
        <time>2020-03-31T09:45:53.573Z</time>
      </trkpt>
      <trkpt lat="56.616689" lon="-3.541492">
        <ele>279.313145</ele>
        <time>2020-03-31T09:46:08.220Z</time>
      </trkpt>
      <trkpt lat="56.616317" lon="-3.539636">
        <ele>278.040321</ele>
        <time>2020-03-31T09:46:32.625Z</time>
      </trkpt>
      <trkpt lat="56.616175" lon="-3.539357">
        <ele>277.795424</ele>
        <time>2020-03-31T09:46:37.408Z</time>
      </trkpt>
      <trkpt lat="56.616045" lon="-3.539261">
        <ele>277.631097</ele>
        <time>2020-03-31T09:46:40.609Z</time>
      </trkpt>
      <trkpt lat="56.615892" lon="-3.539014">
        <ele>277.391285</ele>
        <time>2020-03-31T09:46:45.355Z</time>
      </trkpt>
      <trkpt lat="56.615785" lon="-3.538757">
        <ele>277.182135</ele>
        <time>2020-03-31T09:46:49.445Z</time>
      </trkpt>
      <trkpt lat="56.615638" lon="-3.538199">
        <ele>276.780642</ele>
        <time>2020-03-31T09:46:57.305Z</time>
      </trkpt>
      <trkpt lat="56.615555" lon="-3.537469">
        <ele>276.296880</ele>
        <time>2020-03-31T09:47:06.645Z</time>
      </trkpt>
      <trkpt lat="56.615378" lon="-3.536943">
        <ele>275.896743</ele>
        <time>2020-03-31T09:47:14.274Z</time>
      </trkpt>
      <trkpt lat="56.614811" lon="-3.536182">
        <ele>274.831965</ele>
        <time>2020-03-31T09:47:29.900Z</time>
      </trkpt>
      <trkpt lat="56.614640" lon="-3.535806">
        <ele>274.188911</ele>
        <time>2020-03-31T09:47:35.727Z</time>
      </trkpt>
      <trkpt lat="56.614233" lon="-3.535152">
        <ele>272.887352</ele>
        <time>2020-03-31T09:47:47.233Z</time>
      </trkpt>
      <trkpt lat="56.613938" lon="-3.534379">
        <ele>271.647217</ele>
        <time>2020-03-31T09:47:57.775Z</time>
      </trkpt>
      <trkpt lat="56.613418" lon="-3.533349">
        <ele>268.390111</ele>
        <time>2020-03-31T09:48:12.915Z</time>
      </trkpt>
      <trkpt lat="56.612804" lon="-3.532534">
        <ele>264.381974</ele>
        <time>2020-03-31T09:48:26.709Z</time>
      </trkpt>
      <trkpt lat="56.612414" lon="-3.531708">
        <ele>261.197306</ele>
        <time>2020-03-31T09:48:37.210Z</time>
      </trkpt>
      <trkpt lat="56.612190" lon="-3.531418">
        <ele>259.603409</ele>
        <time>2020-03-31T09:48:42.035Z</time>
      </trkpt>
      <trkpt lat="56.612055" lon="-3.531192">
        <ele>258.539658</ele>
        <time>2020-03-31T09:48:45.424Z</time>
      </trkpt>
      <trkpt lat="56.611948" lon="-3.531160">
        <ele>257.911224</ele>
        <time>2020-03-31T09:48:46.843Z</time>
      </trkpt>
      <trkpt lat="56.611905" lon="-3.531137">
        <ele>257.651456</ele>
        <time>2020-03-31T09:48:47.354Z</time>
      </trkpt>
      <trkpt lat="56.610070" lon="-3.530151">
        <ele>247.444889</ele>
        <time>2020-03-31T09:49:12.696Z</time>
      </trkpt>
      <trkpt lat="56.609887" lon="-3.530151">
        <ele>246.591712</ele>
        <time>2020-03-31T09:49:15.276Z</time>
      </trkpt>
      <trkpt lat="56.608987" lon="-3.530728">
        <ele>242.093398</ele>
        <time>2020-03-31T09:49:28.494Z</time>
      </trkpt>
      <trkpt lat="56.607448" lon="-3.532447">
        <ele>232.772695</ele>
        <time>2020-03-31T09:49:52.490Z</time>
      </trkpt>
      <trkpt lat="56.607342" lon="-3.532554">
        <ele>232.012384</ele>
        <time>2020-03-31T09:49:54.078Z</time>
      </trkpt>
      <trkpt lat="56.607242" lon="-3.532544">
        <ele>231.384426</ele>
        <time>2020-03-31T09:49:55.389Z</time>
      </trkpt>
      <trkpt lat="56.606673" lon="-3.531937">
        <ele>227.247257</ele>
        <time>2020-03-31T09:50:03.953Z</time>
      </trkpt>
      <trkpt lat="56.606262" lon="-3.531331">
        <ele>223.928455</ele>
        <time>2020-03-31T09:50:10.724Z</time>
      </trkpt>
      <trkpt lat="56.605940" lon="-3.530631">
        <ele>220.266384</ele>
        <time>2020-03-31T09:50:17.043Z</time>
      </trkpt>
      <trkpt lat="56.605621" lon="-3.529601">
        <ele>214.794414</ele>
        <time>2020-03-31T09:50:25.106Z</time>
      </trkpt>
      <trkpt lat="56.605485" lon="-3.529312">
        <ele>213.033960</ele>
        <time>2020-03-31T09:50:27.669Z</time>
      </trkpt>
      <trkpt lat="56.604824" lon="-3.528453">
        <ele>206.094690</ele>
        <time>2020-03-31T09:50:37.527Z</time>
      </trkpt>
      <trkpt lat="56.604180" lon="-3.527874">
        <ele>199.399553</ele>
        <time>2020-03-31T09:50:46.173Z</time>
      </trkpt>
      <trkpt lat="56.604018" lon="-3.527845">
        <ele>197.882776</ele>
        <time>2020-03-31T09:50:48.137Z</time>
      </trkpt>
      <trkpt lat="56.603663" lon="-3.528091">
        <ele>194.342549</ele>
        <time>2020-03-31T09:50:52.725Z</time>
      </trkpt>
      <trkpt lat="56.602742" lon="-3.528145">
        <ele>186.302355</ele>
        <time>2020-03-31T09:51:03.971Z</time>
      </trkpt>
      <trkpt lat="56.601841" lon="-3.528496">
        <ele>178.726753</ele>
        <time>2020-03-31T09:51:15.389Z</time>
      </trkpt>
      <trkpt lat="56.600643" lon="-3.528711">
        <ele>168.618122</ele>
        <time>2020-03-31T09:51:30.327Z</time>
      </trkpt>
      <trkpt lat="56.599931" lon="-3.528960">
        <ele>162.470943</ele>
        <time>2020-03-31T09:51:39.244Z</time>
      </trkpt>
      <trkpt lat="56.599665" lon="-3.528907">
        <ele>160.169404</ele>
        <time>2020-03-31T09:51:42.465Z</time>
      </trkpt>
      <trkpt lat="56.599473" lon="-3.528732">
        <ele>157.966324</ele>
        <time>2020-03-31T09:51:45.038Z</time>
      </trkpt>
      <trkpt lat="56.598730" lon="-3.528562">
        <ele>150.286045</ele>
        <time>2020-03-31T09:51:53.940Z</time>
      </trkpt>
      <trkpt lat="56.598381" lon="-3.528668">
        <ele>146.657078</ele>
        <time>2020-03-31T09:51:58.152Z</time>
      </trkpt>
      <trkpt lat="56.597415" lon="-3.528295">
        <ele>137.371117</ele>
        <time>2020-03-31T09:52:09.929Z</time>
      </trkpt>
      <trkpt lat="56.596293" lon="-3.527995">
        <ele>127.560227</ele>
        <time>2020-03-31T09:52:23.818Z</time>
      </trkpt>
      <trkpt lat="56.595156" lon="-3.527102">
        <ele>120.263701</ele>
        <time>2020-03-31T09:52:40.000Z</time>
      </trkpt>
      <trkpt lat="56.594733" lon="-3.526503">
        <ele>117.292428</ele>
        <time>2020-03-31T09:52:47.204Z</time>
      </trkpt>
      <trkpt lat="56.594431" lon="-3.525802">
        <ele>115.153278</ele>
        <time>2020-03-31T09:52:53.899Z</time>
      </trkpt>
      <trkpt lat="56.593830" lon="-3.527035">
        <ele>111.727031</ele>
        <time>2020-03-31T09:53:06.568Z</time>
      </trkpt>
      <trkpt lat="56.593392" lon="-3.527421">
        <ele>109.887293</ele>
        <time>2020-03-31T09:53:13.536Z</time>
      </trkpt>
      <trkpt lat="56.593135" lon="-3.527755">
        <ele>108.994047</ele>
        <time>2020-03-31T09:53:18.193Z</time>
      </trkpt>
      <trkpt lat="56.592949" lon="-3.528131">
        <ele>108.294596</ele>
        <time>2020-03-31T09:53:22.262Z</time>
      </trkpt>
      <trkpt lat="56.592456" lon="-3.529761">
        <ele>105.721129</ele>
        <time>2020-03-31T09:53:37.776Z</time>
      </trkpt>
      <trkpt lat="56.592338" lon="-3.530021">
        <ele>105.254872</ele>
        <time>2020-03-31T09:53:40.679Z</time>
      </trkpt>
      <trkpt lat="56.592300" lon="-3.530076">
        <ele>105.132751</ele>
        <time>2020-03-31T09:53:41.447Z</time>
      </trkpt>
      <trkpt lat="56.592226" lon="-3.529946">
        <ele>104.946547</ele>
        <time>2020-03-31T09:53:42.985Z</time>
      </trkpt>
      <trkpt lat="56.592058" lon="-3.529649">
        <ele>104.574089</ele>
        <time>2020-03-31T09:53:46.686Z</time>
      </trkpt>
      <trkpt lat="56.591444" lon="-3.528822">
        <ele>103.359677</ele>
        <time>2020-03-31T09:53:58.678Z</time>
      </trkpt>
      <trkpt lat="56.590717" lon="-3.528522">
        <ele>102.220007</ele>
        <time>2020-03-31T09:54:10.744Z</time>
      </trkpt>
      <trkpt lat="56.590563" lon="-3.528329">
        <ele>102.268435</ele>
        <time>2020-03-31T09:54:13.997Z</time>
      </trkpt>
      <trkpt lat="56.590315" lon="-3.528190">
        <ele>102.335612</ele>
        <time>2020-03-31T09:54:18.951Z</time>
      </trkpt>
      <trkpt lat="56.590038" lon="-3.528147">
        <ele>102.407568</ele>
        <time>2020-03-31T09:54:24.542Z</time>
      </trkpt>
      <trkpt lat="56.589287" lon="-3.527267">
        <ele>102.638896</ele>
        <time>2020-03-31T09:54:44.623Z</time>
      </trkpt>
      <trkpt lat="56.589140" lon="-3.527106">
        <ele>102.691567</ele>
        <time>2020-03-31T09:54:49.454Z</time>
      </trkpt>
      <trkpt lat="56.588945" lon="-3.527074">
        <ele>102.845370</ele>
        <time>2020-03-31T09:54:53.771Z</time>
      </trkpt>
      <trkpt lat="56.588566" lon="-3.526961">
        <ele>103.147073</ele>
        <time>2020-03-31T09:55:03.433Z</time>
      </trkpt>
      <trkpt lat="56.588478" lon="-3.526934">
        <ele>103.217180</ele>
        <time>2020-03-31T09:55:06.168Z</time>
      </trkpt>
      <trkpt lat="56.587503" lon="-3.526612">
        <ele>103.995636</ele>
        <time>2020-03-31T09:55:29.055Z</time>
      </trkpt>
      <trkpt lat="56.587231" lon="-3.526741">
        <ele>104.040470</ele>
        <time>2020-03-31T09:55:34.830Z</time>
      </trkpt>
      <trkpt lat="56.585258" lon="-3.528071">
        <ele>103.201038</ele>
        <time>2020-03-31T09:56:12.581Z</time>
      </trkpt>
      <trkpt lat="56.584472" lon="-3.528855">
        <ele>102.614783</ele>
        <time>2020-03-31T09:56:28.143Z</time>
      </trkpt>
      <trkpt lat="56.584106" lon="-3.529370">
        <ele>102.318022</ele>
        <time>2020-03-31T09:56:36.205Z</time>
      </trkpt>
      <trkpt lat="56.583917" lon="-3.530142">
        <ele>102.123022</ele>
        <time>2020-03-31T09:56:44.363Z</time>
      </trkpt>
      <trkpt lat="56.583763" lon="-3.531397">
        <ele>101.826251</ele>
        <time>2020-03-31T09:56:57.082Z</time>
      </trkpt>
      <trkpt lat="56.583775" lon="-3.532610">
        <ele>101.597562</ele>
        <time>2020-03-31T09:57:09.585Z</time>
      </trkpt>
      <trkpt lat="56.583862" lon="-3.533989">
        <ele>101.852950</ele>
        <time>2020-03-31T09:57:24.745Z</time>
      </trkpt>
      <trkpt lat="56.583887" lon="-3.534401">
        <ele>101.929215</ele>
        <time>2020-03-31T09:57:29.560Z</time>
      </trkpt>
      <trkpt lat="56.584171" lon="-3.536901">
        <ele>102.603286</ele>
        <time>2020-03-31T09:58:01.192Z</time>
      </trkpt>
      <trkpt lat="56.584212" lon="-3.537845">
        <ele>102.937097</ele>
        <time>2020-03-31T09:58:13.152Z</time>
      </trkpt>
      <trkpt lat="56.584124" lon="-3.538307">
        <ele>103.109427</ele>
        <time>2020-03-31T09:58:19.266Z</time>
      </trkpt>
      <trkpt lat="56.583982" lon="-3.538714">
        <ele>103.279272</ele>
        <time>2020-03-31T09:58:25.238Z</time>
      </trkpt>
      <trkpt lat="56.583444" lon="-3.539766">
        <ele>103.503436</ele>
        <time>2020-03-31T09:58:42.299Z</time>
      </trkpt>
      <trkpt lat="56.583291" lon="-3.540560">
        <ele>103.617559</ele>
        <time>2020-03-31T09:58:51.734Z</time>
      </trkpt>
      <trkpt lat="56.583237" lon="-3.541171">
        <ele>103.701513</ele>
        <time>2020-03-31T09:58:58.369Z</time>
      </trkpt>
      <trkpt lat="56.583119" lon="-3.541495">
        <ele>103.754211</ele>
        <time>2020-03-31T09:59:02.646Z</time>
      </trkpt>
      <trkpt lat="56.583096" lon="-3.541558">
        <ele>103.764466</ele>
        <time>2020-03-31T09:59:03.335Z</time>
      </trkpt>
      <trkpt lat="56.582156" lon="-3.541590">
        <ele>103.595602</ele>
        <time>2020-03-31T09:59:20.970Z</time>
      </trkpt>
      <trkpt lat="56.581725" lon="-3.541000">
        <ele>103.492875</ele>
        <time>2020-03-31T09:59:30.830Z</time>
      </trkpt>
      <trkpt lat="56.581169" lon="-3.539873">
        <ele>103.367765</ele>
        <time>2020-03-31T09:59:46.334Z</time>
      </trkpt>
      <trkpt lat="56.580880" lon="-3.539465">
        <ele>103.323030</ele>
        <time>2020-03-31T09:59:53.196Z</time>
      </trkpt>
      <trkpt lat="56.580644" lon="-3.538961">
        <ele>103.278506</ele>
        <time>2020-03-31T10:00:00.071Z</time>
      </trkpt>
      <trkpt lat="56.580011" lon="-3.538210">
        <ele>103.258881</ele>
        <time>2020-03-31T10:00:14.598Z</time>
      </trkpt>
      <trkpt lat="56.579645" lon="-3.538038">
        <ele>103.365977</ele>
        <time>2020-03-31T10:00:22.135Z</time>
      </trkpt>
      <trkpt lat="56.579243" lon="-3.537963">
        <ele>103.480454</ele>
        <time>2020-03-31T10:00:30.348Z</time>
      </trkpt>
      <trkpt lat="56.578280" lon="-3.538071">
        <ele>103.757063</ele>
        <time>2020-03-31T10:00:51.215Z</time>
      </trkpt>
      <trkpt lat="56.577582" lon="-3.538371">
        <ele>103.978728</ele>
        <time>2020-03-31T10:01:06.685Z</time>
      </trkpt>
      <trkpt lat="56.577378" lon="-3.538397">
        <ele>104.041925</ele>
        <time>2020-03-31T10:01:11.143Z</time>
      </trkpt>
      <trkpt lat="56.577086" lon="-3.538446">
        <ele>104.132546</ele>
        <time>2020-03-31T10:01:17.036Z</time>
      </trkpt>
      <trkpt lat="56.576891" lon="-3.538607">
        <ele>104.198746</ele>
        <time>2020-03-31T10:01:21.201Z</time>
      </trkpt>
      <trkpt lat="56.576649" lon="-3.538940">
        <ele>104.259314</ele>
        <time>2020-03-31T10:01:27.233Z</time>
      </trkpt>
      <trkpt lat="56.576228" lon="-3.539474">
        <ele>104.142987</ele>
        <time>2020-03-31T10:01:37.029Z</time>
      </trkpt>
      <trkpt lat="56.576195" lon="-3.540223">
        <ele>104.049239</ele>
        <time>2020-03-31T10:01:44.663Z</time>
      </trkpt>
      <trkpt lat="56.576225" lon="-3.541415">
        <ele>103.900365</ele>
        <time>2020-03-31T10:01:56.508Z</time>
      </trkpt>
      <trkpt lat="56.576098" lon="-3.542137">
        <ele>103.854050</ele>
        <time>2020-03-31T10:02:04.091Z</time>
      </trkpt>
      <trkpt lat="56.575581" lon="-3.543768">
        <ele>103.807490</ele>
        <time>2020-03-31T10:02:23.522Z</time>
      </trkpt>
      <trkpt lat="56.575155" lon="-3.544926">
        <ele>104.062199</ele>
        <time>2020-03-31T10:02:39.253Z</time>
      </trkpt>
      <trkpt lat="56.574875" lon="-3.545978">
        <ele>104.720911</ele>
        <time>2020-03-31T10:02:53.975Z</time>
      </trkpt>
      <trkpt lat="56.574582" lon="-3.546723">
        <ele>105.237004</ele>
        <time>2020-03-31T10:03:06.831Z</time>
      </trkpt>
      <trkpt lat="56.573932" lon="-3.547571">
        <ele>106.504888</ele>
        <time>2020-03-31T10:03:29.480Z</time>
      </trkpt>
      <trkpt lat="56.572967" lon="-3.550032">
        <ele>109.911908</ele>
        <time>2020-03-31T10:04:20.568Z</time>
      </trkpt>
      <trkpt lat="56.572444" lon="-3.553856">
        <ele>114.483481</ele>
        <time>2020-03-31T10:05:20.915Z</time>
      </trkpt>
      <trkpt lat="56.572212" lon="-3.554791">
        <ele>116.022848</ele>
        <time>2020-03-31T10:05:38.647Z</time>
      </trkpt>
      <trkpt lat="56.571957" lon="-3.556170">
        <ele>118.737125</ele>
        <time>2020-03-31T10:06:09.515Z</time>
      </trkpt>
      <trkpt lat="56.571907" lon="-3.556753">
        <ele>120.388901</ele>
        <time>2020-03-31T10:06:22.867Z</time>
      </trkpt>
      <trkpt lat="56.571836" lon="-3.556712">
        <ele>120.767526</ele>
        <time>2020-03-31T10:06:28.033Z</time>
      </trkpt>
      <trkpt lat="56.571737" lon="-3.556656">
        <ele>121.294485</ele>
        <time>2020-03-31T10:06:35.266Z</time>
      </trkpt>
      <trkpt lat="56.571515" lon="-3.556743">
        <ele>122.448637</ele>
        <time>2020-03-31T10:06:51.076Z</time>
      </trkpt>
      <trkpt lat="56.571174" lon="-3.557522">
        <ele>125.234144</ele>
        <time>2020-03-31T10:07:29.343Z</time>
      </trkpt>
      <trkpt lat="56.570900" lon="-3.557728">
        <ele>126.740646</ele>
        <time>2020-03-31T10:07:49.970Z</time>
      </trkpt>
      <trkpt lat="56.570445" lon="-3.558915">
        <ele>130.477627</ele>
        <time>2020-03-31T10:08:45.555Z</time>
      </trkpt>
      <trkpt lat="56.569646" lon="-3.560753">
        <ele>136.218134</ele>
        <time>2020-03-31T10:10:15.529Z</time>
      </trkpt>
      <trkpt lat="56.569184" lon="-3.561705">
        <ele>138.748071</ele>
        <time>2020-03-31T10:11:04.231Z</time>
      </trkpt>
      <trkpt lat="56.569000" lon="-3.562085">
        <ele>139.756940</ele>
        <time>2020-03-31T10:11:23.668Z</time>
      </trkpt>
      <trkpt lat="56.568496" lon="-3.562635">
        <ele>141.712559</ele>
        <time>2020-03-31T10:12:04.635Z</time>
      </trkpt>
      <trkpt lat="56.568068" lon="-3.562911">
        <ele>141.966888</ele>
        <time>2020-03-31T10:12:36.293Z</time>
      </trkpt>
      <trkpt lat="56.567519" lon="-3.563569">
        <ele>142.335268</ele>
        <time>2020-03-31T10:13:22.083Z</time>
      </trkpt>
      <trkpt lat="56.567343" lon="-3.564111">
        <ele>142.529357</ele>
        <time>2020-03-31T10:13:46.239Z</time>
      </trkpt>
      <trkpt lat="56.566612" lon="-3.565380">
        <ele>136.915133</ele>
        <time>2020-03-31T10:14:56.796Z</time>
      </trkpt>
      <trkpt lat="56.566147" lon="-3.565501">
        <ele>133.190911</ele>
        <time>2020-03-31T10:15:29.605Z</time>
      </trkpt>
      <trkpt lat="56.566095" lon="-3.565641">
        <ele>132.453392</ele>
        <time>2020-03-31T10:15:36.106Z</time>
      </trkpt>
      <trkpt lat="56.566036" lon="-3.565801">
        <ele>131.612406</ele>
        <time>2020-03-31T10:15:38.272Z</time>
      </trkpt>
      <trkpt lat="56.565715" lon="-3.566670">
        <ele>126.218572</ele>
        <time>2020-03-31T10:15:50.502Z</time>
      </trkpt>
      <trkpt lat="56.565387" lon="-3.567370">
        <ele>119.819003</ele>
        <time>2020-03-31T10:16:00.832Z</time>
      </trkpt>
      <trkpt lat="56.565449" lon="-3.567987">
        <ele>115.451101</ele>
        <time>2020-03-31T10:16:07.841Z</time>
      </trkpt>
      <trkpt lat="56.565396" lon="-3.568496">
        <ele>111.843484</ele>
        <time>2020-03-31T10:16:13.742Z</time>
      </trkpt>
      <trkpt lat="56.565269" lon="-3.568884">
        <ele>108.700445</ele>
        <time>2020-03-31T10:16:18.948Z</time>
      </trkpt>
      <trkpt lat="56.565103" lon="-3.569394">
        <ele>105.053234</ele>
        <time>2020-03-31T10:16:25.903Z</time>
      </trkpt>
      <trkpt lat="56.564735" lon="-3.570589">
        <ele>99.594160</ele>
        <time>2020-03-31T10:16:42.460Z</time>
      </trkpt>
      <trkpt lat="56.564685" lon="-3.570857">
        <ele>98.465847</ele>
        <time>2020-03-31T10:16:46.044Z</time>
      </trkpt>
      <trkpt lat="56.564667" lon="-3.571737">
        <ele>94.954228</ele>
        <time>2020-03-31T10:16:57.333Z</time>
      </trkpt>
      <trkpt lat="56.564138" lon="-3.573078">
        <ele>91.982215</ele>
        <time>2020-03-31T10:17:20.830Z</time>
      </trkpt>
      <trkpt lat="56.563776" lon="-3.574565">
        <ele>90.935450</ele>
        <time>2020-03-31T10:17:48.848Z</time>
      </trkpt>
      <trkpt lat="56.563895" lon="-3.574852">
        <ele>90.704173</ele>
        <time>2020-03-31T10:17:54.325Z</time>
      </trkpt>
      <trkpt lat="56.564687" lon="-3.576842">
        <ele>90.354789</ele>
        <time>2020-03-31T10:18:25.849Z</time>
      </trkpt>
      <trkpt lat="56.564937" lon="-3.577782">
        <ele>90.155184</ele>
        <time>2020-03-31T10:18:36.296Z</time>
      </trkpt>
      <trkpt lat="56.564972" lon="-3.578140">
        <ele>89.036525</ele>
        <time>2020-03-31T10:18:39.940Z</time>
      </trkpt>
      <trkpt lat="56.564983" lon="-3.578280">
        <ele>88.601431</ele>
        <time>2020-03-31T10:18:41.210Z</time>
      </trkpt>
      <trkpt lat="56.564996" lon="-3.578450">
        <ele>88.073381</ele>
        <time>2020-03-31T10:18:42.495Z</time>
      </trkpt>
      <trkpt lat="56.565027" lon="-3.579352">
        <ele>85.292818</ele>
        <time>2020-03-31T10:18:49.564Z</time>
      </trkpt>
      <trkpt lat="56.565168" lon="-3.580091">
        <ele>82.886692</ele>
        <time>2020-03-31T10:18:55.390Z</time>
      </trkpt>
      <trkpt lat="56.565205" lon="-3.580722">
        <ele>80.934351</ele>
        <time>2020-03-31T10:19:00.006Z</time>
      </trkpt>
      <trkpt lat="56.565210" lon="-3.581146">
        <ele>80.212761</ele>
        <time>2020-03-31T10:19:02.991Z</time>
      </trkpt>
      <trkpt lat="56.565195" lon="-3.581270">
        <ele>80.212761</ele>
        <time>2020-03-31T10:19:03.963Z</time>
      </trkpt>
      <trkpt lat="56.565142" lon="-3.581690">
        <ele>80.212761</ele>
        <time>2020-03-31T10:19:07.053Z</time>
      </trkpt>
      <trkpt lat="56.565068" lon="-3.582006">
        <ele>80.212761</ele>
        <time>2020-03-31T10:19:09.622Z</time>
      </trkpt>
      <trkpt lat="56.565050" lon="-3.582338">
        <ele>80.212761</ele>
        <time>2020-03-31T10:19:11.960Z</time>
      </trkpt>
      <trkpt lat="56.565187" lon="-3.583425">
        <ele>80.212761</ele>
        <time>2020-03-31T10:19:19.909Z</time>
      </trkpt>
      <trkpt lat="56.565352" lon="-3.584018">
        <ele>80.212761</ele>
        <time>2020-03-31T10:19:24.678Z</time>
      </trkpt>
      <trkpt lat="56.565593" lon="-3.584443">
        <ele>80.212761</ele>
        <time>2020-03-31T10:19:29.298Z</time>
      </trkpt>
      <trkpt lat="56.565615" lon="-3.584599">
        <ele>80.212761</ele>
        <time>2020-03-31T10:19:30.524Z</time>
      </trkpt>
      <trkpt lat="56.565626" lon="-3.584677">
        <ele>80.212761</ele>
        <time>2020-03-31T10:19:31.153Z</time>
      </trkpt>
      <trkpt lat="56.565633" lon="-3.584865">
        <ele>80.212761</ele>
        <time>2020-03-31T10:19:32.646Z</time>
      </trkpt>
      <trkpt lat="56.565640" lon="-3.585044">
        <ele>80.212761</ele>
        <time>2020-03-31T10:19:34.072Z</time>
      </trkpt>
      <trkpt lat="56.565620" lon="-3.585504">
        <ele>80.212761</ele>
        <time>2020-03-31T10:19:37.784Z</time>
      </trkpt>
      <trkpt lat="56.565620" lon="-3.585504">
        <ele>80.212761</ele>
        <time>2020-03-31T10:19:37.789Z</time>
      </trkpt>
    </trkseg>
  </trk>
</gpx>